Terminal Aerodrome Forecast
Issued by NWS

Current Version | Previous Version | Text Only | Print | Product List | Glossary On
Versions: 1 2 3 4 5 6 7 8 9 10 11 12 13 14 15 16 17 18 19 20 21 22 23
000
FTUS44 KSJT 021100
TAFJCT
TAF
KJCT 021124Z 0212/0312 03007KT 4SM -DZ BR OVC006
      TEMPO 0212/0215 2SM -DZ BR OVC005
     FM021800 03006KT 6SM BR OVC007
     FM022100 06005KT P6SM OVC012
     FM030300 09004KT 5SM BR OVC007=

USA.gov is the U.S. government's official web portal to all federal, state and local government web resources and services.